SDU weather

Santos Dumont Airport
Rio De Janeiro, Rio de Janeiro, Brazil

Public forecast

Using degrees Celsius for public forecast. Weather courtesy of forecast.io.

Current aviation weather report (METAR) for Santos Dumont Airport

Retrieved 2020/07/09 18:00 UTC (15 minutes ago):

SBRJ 091800Z 20013KT 9999 FEW025 BKN040 BKN080 23/18 Q1019

Aviation forecast (TAF) for Santos Dumont Airport

Retrieved 2020/07/09 12:42 UTC (6 hours ago):

TAF SBRJ 090900Z 0912/0924 22010KT 9999 FEW016 TX23/0916Z TN21/0923Z BECMG 0913/0915 BKN028 BECMG 0921/0923 21005KT BKN020 RMK PDL